Terminal Aerodrome Forecast
Issued by NWS

Home | Current Version | Previous Version | Text Only | Print | Product List | Glossary On
Versions: 1 2 3 4 5 6 7 8 9 10 11 12 13 14 15 16 17 18 19 20 21 22
000
FTUS41 KBTV 012320
TAFSLK
TAF
KSLK 012320Z 0200/0224 35004KT P6SM OVC080
     FM020800 04008KT 1 1/2SM -SN BR OVC020
     FM021100 05010KT 1/2SM SN FG OVC005
     FM022100 01008KT 1SM -SN BR OVC008=

USA.gov is the U.S. government's official web portal to all federal, state and local government web resources and services.